createdAt,value
2019-01-20T00:00:04.813Z,18.60
2019-01-20T00:01:04.807Z,18.60
2019-01-20T00:02:04.794Z,17.60
2019-01-20T00:03:04.783Z,17.10
2019-01-20T00:04:04.799Z,16.30
2019-01-20T00:05:04.759Z,17.60
2019-01-20T00:06:04.753Z,17.40
2019-01-20T00:07:04.738Z,20.70
2019-01-20T00:08:04.727Z,21.00
2019-01-20T00:09:04.745Z,19.10
2019-01-20T00:10:04.710Z,20.20
2019-01-20T00:11:04.692Z,19.80
2019-01-20T00:12:04.685Z,20.90
2019-01-20T00:13:04.673Z,20.00
2019-01-20T00:14:04.693Z,21.70
2019-01-20T00:15:04.656Z,20.30
2019-01-20T00:16:04.639Z,17.30
2019-01-20T00:17:04.631Z,17.40
2019-01-20T00:18:04.620Z,16.30
2019-01-20T00:19:04.637Z,15.40
2019-01-20T00:20:04.595Z,12.60
2019-01-20T00:21:04.586Z,13.50
2019-01-20T00:22:04.575Z,15.40
2019-01-20T00:23:04.565Z,14.80
2019-01-20T00:24:04.556Z,15.10
2019-01-20T00:25:04.609Z,13.70
2019-01-20T00:26:04.533Z,12.70
2019-01-20T00:27:04.537Z,13.80
2019-01-20T00:28:04.510Z,14.20
2019-01-20T00:29:04.500Z,13.70
2019-01-20T00:30:04.489Z,14.90
2019-01-20T00:31:04.508Z,13.60
2019-01-20T00:32:04.465Z,13.50
2019-01-20T00:33:04.456Z,12.20
2019-01-20T00:34:04.446Z,14.00
2019-01-20T00:35:04.444Z,13.60
2019-01-20T00:36:04.423Z,13.10
2019-01-20T00:37:04.441Z,14.40
2019-01-20T00:38:04.401Z,11.20
2019-01-20T00:39:04.389Z,12.10
2019-01-20T00:40:04.380Z,12.70
2019-01-20T00:41:04.370Z,12.70
2019-01-20T00:42:04.364Z,13.00
2019-01-20T00:43:04.379Z,13.00
2019-01-20T00:44:04.337Z,13.50
2019-01-20T00:45:04.333Z,12.20
2019-01-20T00:46:04.316Z,12.90
2019-01-20T00:47:04.360Z,10.20
2019-01-20T00:48:04.294Z,10.10
2019-01-20T00:49:04.313Z,12.70
2019-01-20T00:50:04.269Z,13.80
2019-01-20T00:51:04.258Z,11.30
2019-01-20T00:52:04.247Z,11.90
2019-01-20T00:53:04.248Z,12.70
2019-01-20T00:54:04.227Z,12.90
2019-01-20T00:55:04.247Z,11.40
2019-01-20T00:56:04.204Z,13.20
2019-01-20T00:57:04.262Z,15.90
2019-01-20T00:58:04.189Z,13.90
2019-01-20T00:59:04.172Z,13.10
2019-01-20T01:00:04.161Z,12.70
2019-01-20T01:01:04.188Z,15.60
2019-01-20T01:02:04.139Z,14.60
2019-01-20T01:03:04.131Z,13.90
2019-01-20T01:04:04.118Z,13.50
2019-01-20T01:05:04.111Z,13.00
2019-01-20T01:06:04.097Z,13.50
2019-01-20T01:07:04.115Z,15.30
2019-01-20T01:08:04.076Z,15.50
2019-01-20T01:09:04.108Z,15.10
2019-01-20T01:10:04.054Z,14.50
2019-01-20T01:11:04.042Z,15.10
2019-01-20T01:12:04.030Z,15.80
2019-01-20T01:13:04.020Z,15.30
2019-01-20T01:14:04.009Z,15.60
2019-01-20T01:15:04.027Z,14.60
2019-01-20T01:16:03.987Z,14.20
2019-01-20T01:17:04.007Z,13.90
2019-01-20T01:18:03.965Z,14.30
2019-01-20T01:19:03.954Z,13.60
2019-01-20T01:20:03.947Z,12.30
2019-01-20T01:21:03.941Z,15.60
2019-01-20T01:22:03.922Z,14.00
2019-01-20T01:23:03.957Z,13.50
2019-01-20T01:24:03.900Z,16.90
2019-01-20T01:25:03.891Z,16.30
2019-01-20T01:26:03.879Z,16.80
2019-01-20T01:27:03.871Z,15.60
2019-01-20T01:28:03.857Z,14.80
2019-01-20T01:29:03.882Z,12.60
2019-01-20T01:30:03.835Z,14.10
2019-01-20T01:31:03.856Z,15.70
2019-01-20T01:32:03.814Z,14.50
2019-01-20T01:33:03.804Z,16.70
2019-01-20T01:34:03.798Z,15.90
2019-01-20T01:35:03.781Z,14.60
2019-01-20T01:36:03.818Z,16.10
2019-01-20T01:37:03.760Z,17.50
2019-01-20T01:38:03.751Z,15.90
2019-01-20T01:39:03.739Z,17.40
2019-01-20T01:40:03.740Z,15.20
2019-01-20T01:41:03.717Z,17.10
2019-01-20T01:42:03.736Z,15.20
2019-01-20T01:43:03.698Z,17.90
2019-01-20T01:44:03.685Z,17.70
2019-01-20T01:45:03.678Z,15.80
2019-01-20T01:46:03.662Z,17.10
2019-01-20T01:47:03.652Z,18.60
2019-01-20T01:48:03.679Z,18.10
2019-01-20T01:49:03.631Z,15.90
2019-01-20T01:50:03.620Z,15.00
2019-01-20T01:51:03.641Z,15.50
2019-01-20T01:52:03.603Z,17.90
2019-01-20T01:53:03.588Z,15.70
2019-01-20T01:54:03.590Z,17.60
2019-01-20T01:55:03.566Z,16.40
2019-01-20T01:56:03.555Z,16.50
2019-01-20T01:57:03.580Z,15.10
2019-01-20T01:58:03.535Z,16.10
2019-01-20T01:59:03.528Z,18.50
2019-01-20T02:00:03.514Z,16.20
2019-01-20T02:01:03.508Z,16.10
2019-01-20T02:02:03.490Z,16.20
2019-01-20T02:03:03.526Z,15.20
2019-01-20T02:04:03.471Z,14.00
2019-01-20T02:05:03.458Z,15.80
2019-01-20T02:06:03.447Z,16.70
2019-01-20T02:07:03.437Z,15.80
2019-01-20T02:08:03.428Z,17.20
2019-01-20T02:09:03.445Z,14.90
2019-01-20T02:10:03.406Z,14.80
2019-01-20T02:11:03.396Z,15.90
2019-01-20T02:12:03.383Z,16.50
2019-01-20T02:13:03.406Z,17.80
2019-01-20T02:14:03.373Z,14.40
2019-01-20T02:15:03.351Z,15.20
2019-01-20T02:16:03.371Z,15.70
2019-01-20T02:17:03.330Z,17.00
2019-01-20T02:18:03.320Z,13.20
2019-01-20T02:19:03.308Z,16.00
2019-01-20T02:20:03.299Z,16.70
2019-01-20T02:21:03.287Z,15.90
2019-01-20T02:22:03.304Z,18.30
2019-01-20T02:23:03.299Z,15.70
2019-01-20T02:24:03.252Z,15.90
2019-01-20T02:25:03.242Z,16.10
2019-01-20T02:26:03.232Z,16.70
2019-01-20T02:27:03.262Z,16.10
2019-01-20T02:28:03.213Z,16.10
2019-01-20T02:29:03.199Z,17.60
2019-01-20T02:30:03.192Z,16.20
2019-01-20T02:31:03.176Z,16.80
2019-01-20T02:32:03.167Z,16.30
2019-01-20T02:33:03.188Z,15.00
2019-01-20T02:34:03.145Z,17.20
2019-01-20T02:35:03.136Z,15.80
2019-01-20T02:36:03.135Z,16.90
2019-01-20T02:37:03.113Z,15.20
2019-01-20T02:38:03.133Z,16.70
2019-01-20T02:39:03.092Z,15.40
2019-01-20T02:40:03.082Z,15.60
2019-01-20T02:41:03.071Z,14.40
2019-01-20T02:42:03.061Z,14.20
2019-01-20T02:43:03.050Z,14.90
2019-01-20T02:44:03.067Z,15.70
2019-01-20T02:45:03.027Z,13.30
2019-01-20T02:46:03.052Z,15.10
2019-01-20T02:47:03.008Z,14.70
2019-01-20T02:48:02.998Z,13.30
2019-01-20T02:49:02.985Z,14.20
2019-01-20T02:50:02.973Z,13.30
2019-01-20T02:51:02.963Z,15.50
2019-01-20T02:52:02.987Z,14.30
2019-01-20T02:53:02.943Z,14.60
2019-01-20T02:54:02.933Z,12.60
2019-01-20T02:55:02.921Z,13.00
2019-01-20T02:56:02.912Z,14.00
2019-01-20T02:57:02.898Z,15.50
2019-01-20T02:58:02.918Z,14.90
2019-01-20T02:59:02.880Z,15.40
2019-01-20T03:00:02.866Z,16.80
2019-01-20T03:01:02.854Z,18.30
2019-01-20T03:02:02.846Z,15.80
2019-01-20T03:03:02.867Z,17.10
2019-01-20T03:04:02.823Z,16.20
2019-01-20T03:05:02.813Z,16.50
2019-01-20T03:06:02.801Z,17.60
2019-01-20T03:07:02.790Z,17.40
2019-01-20T03:08:02.783Z,15.90
2019-01-20T03:09:02.798Z,17.00
2019-01-20T03:10:02.793Z,16.00
2019-01-20T03:11:02.748Z,15.80
2019-01-20T03:12:03.595Z,18.00
2019-01-20T03:13:02.727Z,17.90
2019-01-20T03:14:02.718Z,17.60
2019-01-20T03:15:02.707Z,18.20
2019-01-20T03:16:02.723Z,18.30
2019-01-20T03:17:02.715Z,18.20
2019-01-20T03:18:02.674Z,17.90
2019-01-20T03:19:02.664Z,18.70
2019-01-20T03:20:02.652Z,17.70
2019-01-20T03:21:02.644Z,19.40
2019-01-20T03:22:02.629Z,19.00
2019-01-20T03:23:02.652Z,15.60
2019-01-20T03:24:02.609Z,17.00
2019-01-20T03:25:02.601Z,16.90
2019-01-20T03:26:02.589Z,17.70
2019-01-20T03:27:02.577Z,17.10
2019-01-20T03:28:02.573Z,17.80
2019-01-20T03:29:02.598Z,16.10
2019-01-20T03:30:02.544Z,20.00
2019-01-20T03:31:02.540Z,17.90
2019-01-20T03:32:02.525Z,14.90
2019-01-20T03:33:02.515Z,19.10
2019-01-20T03:34:02.500Z,17.90
2019-01-20T03:35:02.525Z,18.00
2019-01-20T03:36:02.479Z,18.80
2019-01-20T03:37:02.475Z,17.60
2019-01-20T03:38:02.457Z,18.50
2019-01-20T03:39:02.447Z,16.20
2019-01-20T03:40:02.442Z,18.50
2019-01-20T03:41:02.457Z,17.60
2019-01-20T03:42:02.420Z,16.40
2019-01-20T03:43:02.405Z,18.00
2019-01-20T03:44:02.398Z,15.90
2019-01-20T03:45:02.381Z,17.50
2019-01-20T03:46:02.372Z,17.20
2019-01-20T03:47:02.443Z,19.10
2019-01-20T03:48:02.351Z,17.20
2019-01-20T03:49:02.343Z,15.80
2019-01-20T03:50:02.359Z,17.60
2019-01-20T03:51:02.349Z,18.30
2019-01-20T03:52:02.309Z,18.70
2019-01-20T03:53:02.298Z,19.30
2019-01-20T03:54:02.317Z,20.40
2019-01-20T03:55:02.278Z,18.70
2019-01-20T03:56:02.265Z,18.50
2019-01-20T03:57:02.267Z,17.70
2019-01-20T03:58:02.275Z,19.70
2019-01-20T03:59:02.233Z,16.70
2019-01-20T04:00:02.224Z,20.40
2019-01-20T04:01:02.216Z,20.00
2019-01-20T04:02:02.202Z,17.20
2019-01-20T04:03:02.194Z,18.80
2019-01-20T04:04:02.215Z,17.40
2019-01-20T04:05:02.175Z,17.70
2019-01-20T04:06:02.156Z,18.70
2019-01-20T04:07:02.146Z,19.10
2019-01-20T04:08:02.138Z,17.70
2019-01-20T04:09:02.155Z,17.80
2019-01-20T04:10:02.115Z,17.50
2019-01-20T04:11:02.105Z,17.20
2019-01-20T04:12:02.093Z,15.60
2019-01-20T04:13:02.082Z,19.80
2019-01-20T04:14:02.072Z,18.10
2019-01-20T04:15:02.091Z,19.00
2019-01-20T04:16:02.050Z,18.30
2019-01-20T04:17:02.040Z,16.50
2019-01-20T04:18:02.073Z,19.30
2019-01-20T04:19:02.027Z,16.70
2019-01-20T04:20:02.006Z,16.30
2019-01-20T04:21:01.996Z,19.00
2019-01-20T04:22:01.986Z,17.90
2019-01-20T04:23:01.975Z,15.90
2019-01-20T04:24:01.998Z,18.20
2019-01-20T04:25:01.958Z,15.60
2019-01-20T04:26:01.970Z,16.20
2019-01-20T04:27:01.934Z,15.10
2019-01-20T04:28:01.926Z,14.70
2019-01-20T04:29:01.916Z,14.50
2019-01-20T04:30:01.901Z,16.00
2019-01-20T04:31:01.888Z,16.60
2019-01-20T04:32:01.910Z,16.60
2019-01-20T04:33:01.866Z,17.00
2019-01-20T04:34:01.856Z,19.10
2019-01-20T04:35:01.880Z,18.80
2019-01-20T04:36:01.840Z,16.60
2019-01-20T04:37:01.827Z,14.60
2019-01-20T04:38:01.814Z,18.10
2019-01-20T04:39:01.803Z,17.70
2019-01-20T04:40:01.794Z,14.60
2019-01-20T04:41:01.817Z,14.20
2019-01-20T04:42:01.773Z,13.60
2019-01-20T04:43:01.766Z,15.10
2019-01-20T04:44:01.747Z,14.60
2019-01-20T04:45:01.766Z,15.50
2019-01-20T04:46:01.751Z,14.60
2019-01-20T04:47:01.748Z,15.10
2019-01-20T04:48:01.736Z,15.80
2019-01-20T04:49:01.695Z,13.90
2019-01-20T04:50:01.688Z,13.30
2019-01-20T04:51:01.676Z,13.80
2019-01-20T04:52:01.704Z,14.40
2019-01-20T04:53:01.658Z,14.90
2019-01-20T04:54:01.642Z,12.80
2019-01-20T04:55:01.647Z,15.60
2019-01-20T04:56:01.619Z,15.40
2019-01-20T04:57:01.611Z,14.00
2019-01-20T04:58:01.629Z,14.20
2019-01-20T04:59:01.589Z,12.90
2019-01-20T05:00:01.591Z,13.90
2019-01-20T05:01:01.570Z,13.90
2019-01-20T05:02:01.555Z,14.40
2019-01-20T05:03:01.545Z,12.30
2019-01-20T05:04:01.565Z,13.10
2019-01-20T05:05:01.526Z,12.30
2019-01-20T05:06:01.511Z,11.60
2019-01-20T05:07:01.502Z,12.40
2019-01-20T05:08:01.490Z,13.20
2019-01-20T05:09:01.510Z,12.40
2019-01-20T05:10:01.488Z,12.70
2019-01-20T05:11:01.462Z,12.50
2019-01-20T05:12:01.446Z,11.80
2019-01-20T05:13:01.435Z,13.10
2019-01-20T05:14:01.456Z,13.90
2019-01-20T05:15:01.413Z,12.40
2019-01-20T05:16:01.406Z,14.00
2019-01-20T05:17:01.424Z,13.10
2019-01-20T05:18:01.387Z,12.40
2019-01-20T05:19:01.372Z,13.20
2019-01-20T05:20:01.400Z,14.70
2019-01-20T05:21:01.352Z,12.70
2019-01-20T05:22:01.346Z,12.90
2019-01-20T05:23:01.381Z,11.40
2019-01-20T05:24:01.321Z,13.60
2019-01-20T05:25:01.308Z,10.40
2019-01-20T05:26:01.333Z,12.40
2019-01-20T05:27:01.285Z,11.00
2019-01-20T05:28:01.275Z,13.80
2019-01-20T05:29:01.263Z,14.50
2019-01-20T05:30:01.269Z,12.50
2019-01-20T05:31:01.244Z,12.80
2019-01-20T05:32:01.261Z,14.10
2019-01-20T05:33:01.252Z,14.90
2019-01-20T05:34:01.212Z,12.60
2019-01-20T05:35:01.199Z,14.70
2019-01-20T05:36:01.189Z,12.40
2019-01-20T05:37:01.178Z,13.10
2019-01-20T05:38:01.167Z,11.30
2019-01-20T05:39:01.187Z,12.60
2019-01-20T05:40:01.158Z,12.40
2019-01-20T05:41:01.143Z,12.90
2019-01-20T05:42:01.127Z,12.90
2019-01-20T05:43:01.116Z,13.80
2019-01-20T05:44:01.105Z,11.60
2019-01-20T05:45:01.289Z,13.70
2019-01-20T05:46:01.085Z,12.50
2019-01-20T05:47:01.070Z,13.20
2019-01-20T05:48:01.061Z,13.30
2019-01-20T05:49:01.050Z,11.60
2019-01-20T05:50:01.070Z,11.60
2019-01-20T05:51:01.060Z,13.60
2019-01-20T05:52:01.017Z,12.10
2019-01-20T05:53:01.010Z,15.70
2019-01-20T05:54:01.025Z,12.70
2019-01-20T05:55:00.991Z,13.30
2019-01-20T05:56:02.015Z,12.00
2019-01-20T05:57:00.992Z,11.50
2019-01-20T05:58:00.955Z,13.50
2019-01-20T05:59:00.942Z,11.20
2019-01-20T06:00:00.932Z,12.40
2019-01-20T06:01:00.952Z,11.50
2019-01-20T06:02:00.911Z,12.20
2019-01-20T06:03:00.948Z,13.00
2019-01-20T06:04:00.889Z,10.50
2019-01-20T06:05:00.877Z,11.90
2019-01-20T06:06:00.874Z,13.40
2019-01-20T06:07:00.858Z,14.20
2019-01-20T06:08:00.848Z,12.50
2019-01-20T06:09:00.867Z,13.40
2019-01-20T06:10:00.825Z,12.50
2019-01-20T06:11:00.813Z,12.20
2019-01-20T06:12:00.805Z,12.60
2019-01-20T06:13:00.821Z,11.40
2019-01-20T06:14:00.782Z,12.90
2019-01-20T06:15:00.810Z,13.00
2019-01-20T06:16:00.760Z,11.90
2019-01-20T06:17:00.752Z,12.20
2019-01-20T06:18:00.742Z,12.70
2019-01-20T06:19:00.759Z,13.30
2019-01-20T06:20:00.718Z,13.20
2019-01-20T06:21:00.719Z,13.70
2019-01-20T06:22:00.727Z,13.20
2019-01-20T06:23:00.686Z,13.70
2019-01-20T06:24:00.709Z,13.80
2019-01-20T06:25:00.666Z,11.50
2019-01-20T06:26:00.701Z,12.50
2019-01-20T06:27:00.642Z,12.60
2019-01-20T06:28:00.631Z,13.30
2019-01-20T06:29:00.625Z,13.00
2019-01-20T06:30:00.622Z,14.10
2019-01-20T06:31:00.603Z,14.00
2019-01-20T06:32:00.620Z,14.00
2019-01-20T06:33:00.582Z,14.90
2019-01-20T06:34:00.569Z,15.20
2019-01-20T06:35:00.594Z,13.10
2019-01-20T06:36:00.590Z,14.60
2019-01-20T06:37:00.535Z,14.30
2019-01-20T06:38:00.530Z,14.80
2019-01-20T06:39:00.514Z,15.20
2019-01-20T06:40:00.503Z,14.10
2019-01-20T06:41:00.533Z,12.40
2019-01-20T06:42:00.483Z,14.70
2019-01-20T06:43:02.357Z,13.40
2019-01-20T06:44:00.471Z,14.90
2019-01-20T06:45:00.449Z,12.80
2019-01-20T06:46:00.440Z,13.80
2019-01-20T06:47:01.142Z,13.00
2019-01-20T06:48:00.451Z,14.80
2019-01-20T06:49:00.411Z,13.20
2019-01-20T06:50:00.393Z,12.00
2019-01-20T06:51:00.385Z,12.70
2019-01-20T06:52:00.380Z,14.00
2019-01-20T06:53:00.363Z,14.60
2019-01-20T06:54:00.397Z,13.70
2019-01-20T06:55:00.341Z,12.90
2019-01-20T06:56:00.340Z,11.80
2019-01-20T06:57:00.321Z,12.80
2019-01-20T06:58:00.308Z,13.20
2019-01-20T06:59:00.335Z,13.20
2019-01-20T07:00:00.317Z,14.20
2019-01-20T07:01:00.283Z,13.00
2019-01-20T07:02:00.285Z,13.70
2019-01-20T07:03:00.256Z,14.50
2019-01-20T07:04:00.276Z,13.40
2019-01-20T07:05:00.291Z,14.70
2019-01-20T07:06:00.230Z,14.20
2019-01-20T07:07:00.218Z,14.30
2019-01-20T07:08:00.202Z,13.50
2019-01-20T07:09:00.209Z,14.50
2019-01-20T07:10:00.245Z,14.90
2019-01-20T07:11:00.197Z,14.20
2019-01-20T07:12:00.182Z,13.40
2019-01-20T07:13:00.150Z,14.40
2019-01-20T07:14:00.173Z,14.50
2019-01-20T07:15:00.248Z,14.10
2019-01-20T07:16:00.156Z,14.60
2019-01-20T07:17:00.113Z,14.30
2019-01-20T07:18:00.140Z,14.00
2019-01-20T07:19:00.091Z,13.30
2019-01-20T07:20:00.091Z,12.80
2019-01-20T07:21:00.062Z,15.10
2019-01-20T07:22:00.054Z,19.70
2019-01-20T07:23:00.048Z,13.20
2019-01-20T07:24:00.074Z,13.10
2019-01-20T07:25:00.021Z,13.90
2019-01-20T07:26:00.011Z,14.50
2019-01-20T07:26:59.997Z,14.50
2019-01-20T07:27:59.986Z,15.30
2019-01-20T07:28:59.983Z,16.40
2019-01-20T07:30:00.003Z,16.90
2019-01-20T07:30:59.957Z,18.40
2019-01-20T07:31:59.943Z,20.90
2019-01-20T07:32:59.933Z,18.80
2019-01-20T07:33:59.923Z,16.90
2019-01-20T07:34:59.911Z,14.20
2019-01-20T07:35:59.945Z,15.20
2019-01-20T07:36:59.889Z,16.00
2019-01-20T07:37:59.877Z,17.20
2019-01-20T07:38:59.897Z,14.00
2019-01-20T07:39:59.859Z,16.00
2019-01-20T07:40:59.884Z,15.40
2019-01-20T07:41:59.835Z,15.00
2019-01-20T07:42:59.840Z,15.30
2019-01-20T07:43:59.814Z,18.50
2019-01-20T07:44:59.803Z,17.40
2019-01-20T07:45:59.792Z,16.80
2019-01-20T07:46:59.814Z,19.80
2019-01-20T07:47:59.774Z,14.20
2019-01-20T07:48:59.762Z,15.80
2019-01-20T07:49:59.748Z,17.10
2019-01-20T07:50:59.773Z,17.20
2019-01-20T07:51:59.726Z,19.00
2019-01-20T07:52:59.718Z,19.40
2019-01-20T07:53:59.707Z,18.90
2019-01-20T07:54:59.696Z,19.90
2019-01-20T07:55:59.694Z,21.30
2019-01-20T07:56:59.732Z,19.90
2019-01-20T07:57:59.665Z,22.30
2019-01-20T07:58:59.694Z,20.40
2019-01-20T07:59:59.643Z,19.40
2019-01-20T08:00:59.646Z,19.40
2019-01-20T08:01:59.621Z,19.00
2019-01-20T08:02:59.613Z,25.30
2019-01-20T08:03:59.599Z,24.40
2019-01-20T08:04:59.622Z,26.70
2019-01-20T08:05:59.581Z,24.30
2019-01-20T08:06:59.574Z,22.70
2019-01-20T08:07:59.586Z,23.10
2019-01-20T08:08:59.546Z,19.90
2019-01-20T08:09:59.539Z,21.10
2019-01-20T08:10:59.524Z,21.10
2019-01-20T08:11:59.512Z,19.60
2019-01-20T08:12:59.531Z,17.70
2019-01-20T08:13:59.491Z,17.70
2019-01-20T08:14:59.482Z,16.80
2019-01-20T08:15:59.471Z,17.70
2019-01-20T08:16:59.503Z,15.00
2019-01-20T08:17:59.452Z,17.60
2019-01-20T08:18:59.447Z,21.10
2019-01-20T08:19:59.478Z,21.50
2019-01-20T08:20:59.416Z,24.10
2019-01-20T08:21:59.406Z,22.10
2019-01-20T08:22:59.395Z,20.60
2019-01-20T08:23:59.387Z,16.40
2019-01-20T08:24:59.377Z,17.40
2019-01-20T08:25:59.405Z,19.90
2019-01-20T08:26:59.353Z,17.50
2019-01-20T08:27:59.342Z,20.40
2019-01-20T08:28:59.330Z,18.80
2019-01-20T08:29:59.322Z,19.30
2019-01-20T08:30:59.310Z,19.10
2019-01-20T08:31:59.351Z,18.10
2019-01-20T08:32:59.287Z,20.60
2019-01-20T08:33:59.283Z,20.20
2019-01-20T08:34:59.267Z,20.50
2019-01-20T08:35:59.270Z,21.80
2019-01-20T08:36:59.245Z,19.70
2019-01-20T08:37:59.282Z,20.90
2019-01-20T08:38:59.300Z,21.30
2019-01-20T08:39:59.212Z,21.60
2019-01-20T08:40:59.203Z,22.30
2019-01-20T08:41:59.190Z,20.50
2019-01-20T08:42:59.181Z,21.00
2019-01-20T08:43:59.199Z,20.70
2019-01-20T08:44:59.157Z,20.60
2019-01-20T08:45:59.148Z,21.30
2019-01-20T08:46:59.177Z,20.50
2019-01-20T08:47:59.137Z,23.00
2019-01-20T08:48:59.115Z,22.40
2019-01-20T08:49:59.135Z,19.80
2019-01-20T08:51:00.619Z,21.80
2019-01-20T08:51:59.086Z,21.10
2019-01-20T08:52:59.084Z,22.00
2019-01-20T08:53:59.106Z,19.90
2019-01-20T08:54:59.051Z,25.90
2019-01-20T08:55:59.092Z,22.40
2019-01-20T08:56:59.084Z,21.80
2019-01-20T08:57:59.052Z,21.70
2019-01-20T08:58:59.854Z,21.70
2019-01-20T08:59:59.018Z,22.30
2019-01-20T09:00:59.030Z,21.70
2019-01-20T09:01:59.010Z,19.90
2019-01-20T09:02:59.008Z,19.80
2019-01-20T09:03:58.999Z,20.30
2019-01-20T09:04:58.944Z,20.10
2019-01-20T09:05:58.932Z,24.70
2019-01-20T09:06:58.929Z,22.20
2019-01-20T09:07:58.909Z,23.20
2019-01-20T09:08:58.955Z,22.40
2019-01-20T09:09:58.888Z,24.10
2019-01-20T09:10:58.895Z,22.20
2019-01-20T09:11:58.870Z,20.70
2019-01-20T09:12:58.856Z,20.70
2019-01-20T09:13:58.904Z,21.10
2019-01-20T09:14:58.835Z,23.30
2019-01-20T09:15:58.829Z,19.10
2019-01-20T09:16:58.818Z,18.80
2019-01-20T09:17:58.808Z,19.50
2019-01-20T09:18:58.800Z,17.60
2019-01-20T09:19:58.837Z,19.80
2019-01-20T09:20:58.771Z,22.50
2019-01-20T09:21:58.813Z,17.80
2019-01-20T09:22:58.755Z,20.00
2019-01-20T09:23:58.739Z,20.60
2019-01-20T09:24:58.737Z,20.70
2019-01-20T09:25:58.769Z,19.50
2019-01-20T09:26:58.706Z,17.40
2019-01-20T09:27:58.694Z,19.60
2019-01-20T09:28:58.685Z,19.50
2019-01-20T09:29:58.682Z,20.60
2019-01-20T09:30:58.695Z,22.60
2019-01-20T09:31:58.660Z,21.30
2019-01-20T09:32:58.640Z,23.50
2019-01-20T09:33:58.629Z,21.70
2019-01-20T09:34:58.775Z,19.60
2019-01-20T09:35:58.621Z,19.60
2019-01-20T09:36:58.626Z,19.30
2019-01-20T09:37:58.586Z,20.30
2019-01-20T09:38:58.618Z,20.60
2019-01-20T09:39:58.564Z,20.50
2019-01-20T09:40:58.553Z,23.50
2019-01-20T09:41:58.545Z,22.30
2019-01-20T09:42:58.531Z,21.50
2019-01-20T09:43:58.526Z,21.90
2019-01-20T09:44:58.559Z,24.20
2019-01-20T09:45:58.564Z,19.10
2019-01-20T09:46:58.488Z,23.70
2019-01-20T09:47:58.477Z,19.00
2019-01-20T09:48:58.471Z,20.10
2019-01-20T09:49:58.456Z,21.90
2019-01-20T09:50:58.446Z,20.30
2019-01-20T09:51:58.486Z,19.00
2019-01-20T09:52:58.427Z,19.40
2019-01-20T09:53:58.415Z,22.30
2019-01-20T09:54:58.403Z,20.20
2019-01-20T09:55:58.391Z,19.00
2019-01-20T09:56:58.918Z,20.70
2019-01-20T09:57:58.381Z,21.10
2019-01-20T09:58:58.360Z,21.50
2019-01-20T09:59:58.350Z,20.00
2019-01-20T10:00:58.337Z,21.10
2019-01-20T10:01:58.393Z,18.80
2019-01-20T10:02:58.320Z,20.30
2019-01-20T10:03:58.304Z,19.20
2019-01-20T10:04:58.294Z,19.70
2019-01-20T10:05:58.283Z,18.90
2019-01-20T10:06:58.276Z,19.00
2019-01-20T10:07:58.315Z,19.60
2019-01-20T10:08:58.249Z,17.90
2019-01-20T10:09:58.240Z,19.10
2019-01-20T10:10:58.230Z,17.60
2019-01-20T10:11:58.279Z,17.30
2019-01-20T10:12:58.208Z,18.10
2019-01-20T10:13:58.271Z,17.50
2019-01-20T10:14:58.184Z,19.50
2019-01-20T10:15:58.176Z,18.80
2019-01-20T10:16:58.170Z,19.20
2019-01-20T10:17:58.152Z,15.90
2019-01-20T10:18:58.145Z,17.60
2019-01-20T10:19:58.186Z,17.40
2019-01-20T10:20:58.120Z,17.80
2019-01-20T10:21:58.116Z,18.40
2019-01-20T10:22:58.097Z,16.40
2019-01-20T10:23:58.087Z,15.40
2019-01-20T10:24:58.076Z,16.20
2019-01-20T10:25:58.122Z,15.50
2019-01-20T10:26:58.056Z,17.00
2019-01-20T10:27:58.049Z,15.60
2019-01-20T10:28:58.034Z,16.70
2019-01-20T10:29:58.023Z,16.80
2019-01-20T10:30:58.028Z,16.10
2019-01-20T10:31:58.055Z,17.10
2019-01-20T10:32:57.994Z,18.10
2019-01-20T10:33:57.978Z,15.00
2019-01-20T10:34:57.972Z,17.00
2019-01-20T10:35:57.960Z,16.50
2019-01-20T10:36:57.946Z,15.70
2019-01-20T10:37:57.997Z,16.60
2019-01-20T10:38:57.931Z,15.70
2019-01-20T10:39:57.926Z,15.50
2019-01-20T10:40:57.906Z,16.30
2019-01-20T10:41:57.896Z,15.50
2019-01-20T10:42:57.885Z,16.20
2019-01-20T10:44:02.196Z,15.50
2019-01-20T10:44:57.867Z,17.30
2019-01-20T10:45:57.853Z,16.80
2019-01-20T10:46:57.907Z,15.70
2019-01-20T10:47:57.827Z,16.10
2019-01-20T10:48:57.822Z,15.10
2019-01-20T10:49:57.818Z,16.60
2019-01-20T10:50:57.797Z,14.40
2019-01-20T10:51:57.787Z,15.60
2019-01-20T10:52:57.848Z,16.20
2019-01-20T10:53:57.787Z,17.10
2019-01-20T10:54:57.754Z,16.90
2019-01-20T10:55:57.746Z,16.00
2019-01-20T10:56:57.786Z,15.60
2019-01-20T10:57:57.720Z,18.50
2019-01-20T10:58:57.713Z,16.40
2019-01-20T10:59:57.749Z,16.40
2019-01-20T11:00:57.687Z,17.50
2019-01-20T11:01:57.767Z,17.50
2019-01-20T11:02:57.670Z,16.00
2019-01-20T11:03:57.662Z,15.00
2019-01-20T11:04:57.846Z,17.10
2019-01-20T11:05:57.634Z,17.50
2019-01-20T11:06:57.625Z,16.30
2019-01-20T11:07:57.674Z,16.30
2019-01-20T11:08:57.605Z,16.50
2019-01-20T11:09:57.592Z,16.20
2019-01-20T11:10:57.638Z,16.20
2019-01-20T11:11:57.625Z,17.00
2019-01-20T11:12:57.560Z,15.70
2019-01-20T11:13:57.548Z,16.00
2019-01-20T11:14:57.535Z,16.20
2019-01-20T11:15:57.578Z,17.30
2019-01-20T11:16:57.532Z,17.40
2019-01-20T11:17:57.505Z,17.50
2019-01-20T11:18:57.577Z,15.40
2019-01-20T11:19:57.486Z,15.80
2019-01-20T11:20:57.472Z,16.20
2019-01-20T11:21:57.517Z,16.20
2019-01-20T11:22:57.454Z,16.40
2019-01-20T11:23:57.440Z,19.10
2019-01-20T11:24:57.431Z,15.80
2019-01-20T11:25:57.417Z,16.10
2019-01-20T11:26:57.406Z,16.50
2019-01-20T11:27:57.457Z,15.90
2019-01-20T11:28:57.383Z,17.20
2019-01-20T11:29:57.435Z,15.00
2019-01-20T11:30:57.418Z,16.70
2019-01-20T11:31:57.357Z,18.20
2019-01-20T11:32:57.340Z,16.80
2019-01-20T11:33:57.329Z,15.50
2019-01-20T11:34:57.320Z,19.50
2019-01-20T11:35:57.369Z,17.70
2019-01-20T11:36:57.298Z,16.30
2019-01-20T11:37:57.291Z,16.20
2019-01-20T11:38:57.349Z,15.60
2019-01-20T11:39:57.265Z,17.00
2019-01-20T11:40:57.265Z,17.30
2019-01-20T11:41:57.245Z,16.70
2019-01-20T11:42:57.232Z,14.80
2019-01-20T11:43:57.226Z,16.10
2019-01-20T11:44:57.265Z,15.60
2019-01-20T11:45:57.200Z,17.20
2019-01-20T11:46:57.194Z,16.90
2019-01-20T11:47:57.238Z,15.90
2019-01-20T11:48:57.223Z,18.90
2019-01-20T11:49:57.180Z,17.30
2019-01-20T11:50:57.156Z,17.60
2019-01-20T11:51:57.136Z,17.00
2019-01-20T11:52:57.131Z,17.20
2019-01-20T11:53:57.113Z,14.60
2019-01-20T11:54:57.161Z,17.60
2019-01-20T11:55:57.152Z,17.40
2019-01-20T11:56:57.082Z,16.40
2019-01-20T11:57:57.071Z,17.80
2019-01-20T11:58:57.075Z,17.20
2019-01-20T11:59:57.049Z,17.20
2019-01-20T12:00:57.038Z,17.60
2019-01-20T12:01:57.097Z,15.70
2019-01-20T12:02:57.016Z,16.90
2019-01-20T12:03:57.010Z,16.20
2019-01-20T12:04:56.999Z,16.60
2019-01-20T12:05:56.988Z,18.00
2019-01-20T12:06:56.973Z,17.40
2019-01-20T12:07:57.019Z,15.40
2019-01-20T12:08:56.952Z,17.50
2019-01-20T12:09:56.997Z,17.30
2019-01-20T12:10:56.934Z,14.80
2019-01-20T12:11:56.980Z,16.50
2019-01-20T12:12:56.911Z,19.00
2019-01-20T12:13:56.898Z,16.40
2019-01-20T12:14:56.888Z,17.70
2019-01-20T12:15:56.936Z,17.80
2019-01-20T12:16:56.864Z,17.40
2019-01-20T12:17:56.856Z,16.60
2019-01-20T12:18:56.845Z,17.10
2019-01-20T12:19:56.833Z,17.40
2019-01-20T12:20:56.826Z,17.70
2019-01-20T12:21:56.868Z,16.10
2019-01-20T12:22:56.803Z,16.30
2019-01-20T12:23:56.790Z,17.50
2019-01-20T12:24:56.837Z,18.30
2019-01-20T12:25:56.770Z,16.30
2019-01-20T12:26:56.754Z,18.30
2019-01-20T12:27:56.745Z,17.80
2019-01-20T12:28:56.787Z,19.50
2019-01-20T12:29:56.783Z,17.90
2019-01-20T12:30:56.714Z,17.90
2019-01-20T12:31:56.701Z,16.90
2019-01-20T12:32:56.695Z,16.80
2019-01-20T12:33:56.680Z,18.80
2019-01-20T12:34:56.668Z,16.10
2019-01-20T12:35:56.715Z,17.40
2019-01-20T12:36:56.647Z,18.80
2019-01-20T12:37:56.644Z,17.80
2019-01-20T12:38:56.631Z,17.70
2019-01-20T12:39:56.672Z,18.20
2019-01-20T12:40:56.609Z,17.20
2019-01-20T12:41:56.593Z,19.40
2019-01-20T12:42:56.584Z,19.60
2019-01-20T12:43:56.577Z,18.00
2019-01-20T12:44:56.623Z,17.80
2019-01-20T12:45:56.550Z,18.20
2019-01-20T12:46:56.600Z,19.60
2019-01-20T12:47:56.535Z,18.90
2019-01-20T12:48:56.516Z,20.50
2019-01-20T12:49:56.509Z,18.40
2019-01-20T12:50:56.504Z,23.30
2019-01-20T12:51:56.503Z,20.10